KPAN Airport (Payson) Information

FAA: PAN - ICAO: KPAN

KPAN Airport Location

State Arizona
County Gila
City Payson
KPAN Airport is 1 miles west of Payson, AZ.
Latitude 34-15-24.6110N
Longitude 111-20-21.3210W
Elevation 5,156ft

KPAN Airport METARs

METAR KPAN 301815Z AUTO 36003KT 10SM CLR 18/M05 A3025 RMK AO2
Altimeter 30.25"
Temperature 18.0°C (64.4°F)
Wind 360° at 3KT
Clouds Skies are clear.
Visibility 10.0mi
Time observed: 2021-11-30T18:15:00Z

KPAN Airport Details

Status Operational
Activation May 1964
Ownership Public
Usage Public
Chart PHOENIX
ATC on-site No
Beacon schedule sunset-sunrise
Beacon color clear green

KPAN Airport Contacts

Owner TOWN OF PAYSON
Owner address 303 N BEELINE HIGHWAY, PAYSON, AZ 85541
Owner phone 928-474-5242
Manager TIM COURY
Manager address P.O. BOX 4115, PRESCOTT, AZ 86302
Manager phone (928) 237-6848

KPAN Airport (Payson) Radio Frequencies

KPAN (Airport) Radio Frequencies

UNICOM 122.8
Common traffic advisory frequency (CTAF) 122.8